KCSV/CSV METAR and TAF weather

Enter ICAO airport designator
Station Type Date Time Source
KCSV METAR 2023/01/29 17:53 UTC NOAA

KCSV 291753Z AUTO 19008KT 9SM OVC025 05/04 A3018 RMK AO2 RAE13 SLP222 P0000 60073 T00500039 10050 20033 58012


Station Type Date Time Source
KCSV Decoded METAR 2023/01/29 17:53 UTC NOAA

CROSSVILLE MEMORIAL AIRPORT , TN, United States (KCSV) 35-57N 85-05W 570M
Jan 29, 2023 - 12:53 PM EST / 2023.01.29 1753 UTC
Wind: from the S (190 degrees) at 9 MPH (8 KT):0
Visibility: 9 mile(s):0
Sky conditions: overcast
Precipitation last hour: A trace
Temperature: 41.0 F (5.0 C)
Dew Point: 39.0 F (3.9 C)
Relative Humidity: 92%
Pressure (altimeter): 30.18 in. Hg (1022 hPa)
Pressure tendency: 0.04 inches (1.2 hPa) lower than three hours ago
ob: KCSV 291753Z AUTO 19008KT 9SM OVC025 05/04 A3018 RMK AO2 RAE13 SLP222 P0000 60073 T00500039 10050 20033 58012
cycle: 18

Station Type Date Time Source
KCSV TAF 2023/01/29 18:45 UTC NOAA

TAF KCSV 291742Z 2918/3018 20005KT 5SM -RA BR SCT009 OVC018
FM292300 19006KT P6SM OVC005
FM300500 19004KT 3SM BR VCSH OVC004
FM301000 00000KT 1/2SM FG OVC003
FM301500 27003KT 3SM BR OVC005

Example: see airport list